Bromptonville, Canada
Current Conditions -  °F | °C
As of 7:11 PM on Saturday 22 Nov 2014 (Local Time) from CYSC Reporting Station
Light Snow Light Snow  
Wind Chill: 20°   Ceiling: 2200
Heat Index: 30°   Visibility: 1.5mi
Dew Point: 28°   Wind: 13mph
Humidity: 93%   Direction: 220°SW
Pressure: 29.9"   Gusts: 21mph
Location:  45.47°N, 71.94°W
Report Text: CYSC 230011Z AUTO 22011G18KT 1 1/2SM -SN SCT016 BKN022 OVC027 M01/M02 A2990 RMK SLP138
Loading
Personal Weather Stations






























Interactive Weather Map New forecast layout! Learn more

10-Day Weather Forecast

Advertisements
Track Severe Weather on mobile